Atlantic - Newfoundland: Past 24 Hour Conditions

 

Port aux Basques

11:30 AM NDT 30 July 2015
Disclaimer

This table is a summary of hourly weather conditions for the past 24 hours.
Please note that these observations might not always be representative of weather conditions over their associated marine area.

Date / Time
(NDT)
Wind(knots) Conditions Visibility(km) Pressure(kPa) Air tempC) Relative humidity(%) Dew pointC)
30 July 2015
11:30 WNW 7 Sunny 15 101.1 20 73 15
10:30 WNW 3 Sunny 15 101.1 18 76 14
9:30 W 6 Sunny 15 101.2 16 82 13
8:30 WNW 8 Sunny 15 101.2 12 87 10
7:30 N 6 Sunny 15 101.2 11 82 8
6:30 NNE 6 Sunny 15 101.2 10 89 8
5:30 E 7 Clear 15 101.2 9 95 8
4:30 NW 9 Clear 15 101.2 11 94 10
3:30 NNE 10 Clear 15 101.2 11 98 11
2:30 ENE 7 Cloudy 15 101.3 12 98 12
1:30 NE 7 Cloudy 13 101.4 12 99 12
0:30 E 12 gust 17 Cloudy 4 101.4 12 100 12
29 July 2015
23:30 E 16 gust 21 Cloudy 4 101.5 12 100 12
22:30 E 19 gust 24 Cloudy 0.5 101.5 12 100 12
21:30 E 20 gust 25 Cloudy 0.3 101.5 12 100 12
20:30 E 18 gust 25 Light Rain 1 101.5 13 100 13
19:30 E 17 gust 25 Light Rain 2 101.5 13 100 13
18:30 E 19 gust 26 Light Rain 4 101.5 13 100 13
17:30 E 17 Light Rain 4 101.5 14 100 14
16:30 E 17 Rain 1 101.5 14 99 14
15:30 E 17 Light Rain 4 101.4 14 100 14
14:30 E 12 Cloudy 2 101.4 14 100 14
13:30 SE 11 Cloudy 2 101.4 14 100 14
12:30 SE 11 Cloudy 1 101.4 14 100 14
11:30 SSE 18 Cloudy 2 101.4 15 99 14

Zoom-in to make a selection

Map of Atlantic - Newfoundland marine weather areas Southwestern Grand Banks - 44138 Banquereau - 44139 Tail of the Bank - 44140 Nickerson Bank - 44251 Northeast Burgeo Bank - 44255 Blanc-Sablon Airport Cap Whittle Chevery Natashquan Airport Heath Point Miscou Island Grand Étang Ingonish Beach North Mountain St.Paul Island J.A. Douglas McCurdy Sydney Airport Charlottetown Airport East Point North Cape Argentia Bonavista Burgeo Cape Race Corner Brook Daniel's Harbour Englee Ferolle Point La Scie Port aux Basques Rocky Harbour Sagona Island St. Anthony Airport St. John's Int'l Airport St. Lawrence Stephenville Airport Twillingate Winterland Wreckhouse Cartwright Airport Mary's Harbour Grates Cove Pool's Island Marticot Island Long Pond Eskasoni (First Nations) Îles de la Madeleine Airport
Legend:
buoy Buoy
land station Land Station

Atlantic - Newfoundland Area

Another Region

What we are doing

Date modified: